sensor_id;sensor_type;location;lat;lon;timestamp;P1;durP1;ratioP1;P2;durP2;ratioP2
16430;SDS011;8325;49.284;7.238;2023-06-24T04:04:56;5.47;;;4.85;;
16430;SDS011;8325;49.284;7.238;2023-06-24T04:09:10;5.00;;;4.53;;
16430;SDS011;8325;49.284;7.238;2023-06-24T04:13:21;5.75;;;4.80;;
16430;SDS011;8325;49.284;7.238;2023-06-24T04:17:34;5.10;;;4.47;;
16430;SDS011;8325;49.284;7.238;2023-06-24T04:21:46;4.97;;;4.47;;
16430;SDS011;8325;49.284;7.238;2023-06-24T04:25:58;5.15;;;4.57;;
16430;SDS011;8325;49.284;7.238;2023-06-24T04:30:10;4.80;;;4.30;;
16430;SDS011;8325;49.284;7.238;2023-06-24T04:34:22;5.10;;;4.60;;
16430;SDS011;8325;49.284;7.238;2023-06-24T04:38:33;5.10;;;4.60;;
16430;SDS011;8325;49.284;7.238;2023-06-24T04:42:45;5.90;;;4.82;;
16430;SDS011;8325;49.284;7.238;2023-06-24T04:46:57;5.32;;;4.50;;
16430;SDS011;8325;49.284;7.238;2023-06-24T04:51:08;5.68;;;4.80;;
16430;SDS011;8325;49.284;7.238;2023-06-24T04:55:21;6.15;;;5.40;;
16430;SDS011;8325;49.284;7.238;2023-06-24T04:59:33;4.90;;;4.43;;
16430;SDS011;8325;49.284;7.238;2023-06-24T05:03:45;5.22;;;4.72;;
16430;SDS011;8325;49.284;7.238;2023-06-24T05:07:56;5.50;;;4.82;;
16430;SDS011;8325;49.284;7.238;2023-06-24T05:12:08;5.20;;;4.65;;
16430;SDS011;8325;49.284;7.238;2023-06-24T05:16:20;4.97;;;4.47;;
16430;SDS011;8325;49.284;7.238;2023-06-24T05:20:31;4.60;;;4.20;;
16430;SDS011;8325;49.284;7.238;2023-06-24T05:24:43;4.80;;;4.40;;
16430;SDS011;8325;49.284;7.238;2023-06-24T05:28:55;4.68;;;4.28;;
16430;SDS011;8325;49.284;7.238;2023-06-24T05:33:06;4.72;;;4.22;;
16430;SDS011;8325;49.284;7.238;2023-06-24T05:37:20;4.75;;;4.35;;
16430;SDS011;8325;49.284;7.238;2023-06-24T05:41:32;4.57;;;4.10;;
16430;SDS011;8325;49.284;7.238;2023-06-24T05:45:43;4.85;;;4.45;;
16430;SDS011;8325;49.284;7.238;2023-06-24T05:49:55;5.72;;;4.40;;
16430;SDS011;8325;49.284;7.238;2023-06-24T05:54:07;4.95;;;4.45;;
16430;SDS011;8325;49.284;7.238;2023-06-24T05:58:21;5.18;;;4.63;;
16430;SDS011;8325;49.284;7.238;2023-06-24T06:02:33;7.03;;;4.90;;
16430;SDS011;8325;49.284;7.238;2023-06-24T06:06:46;5.45;;;4.95;;
16430;SDS011;8325;49.284;7.238;2023-06-24T06:10:57;4.80;;;4.40;;
16430;SDS011;8325;49.284;7.238;2023-06-24T06:15:09;4.97;;;4.50;;
16430;SDS011;8325;49.284;7.238;2023-06-24T06:19:21;6.65;;;4.70;;
16430;SDS011;8325;49.284;7.238;2023-06-24T06:23:33;5.68;;;5.05;;
16430;SDS011;8325;49.284;7.238;2023-06-24T06:27:44;5.50;;;4.80;;
16430;SDS011;8325;49.284;7.238;2023-06-24T06:31:56;5.38;;;4.45;;
16430;SDS011;8325;49.284;7.238;2023-06-24T06:36:08;5.75;;;4.50;;
16430;SDS011;8325;49.284;7.238;2023-06-24T06:40:20;5.30;;;4.80;;
16430;SDS011;8325;49.284;7.238;2023-06-24T06:44:32;5.47;;;4.90;;
16430;SDS011;8325;49.284;7.238;2023-06-24T06:48:43;5.95;;;4.93;;
16430;SDS011;8325;49.284;7.238;2023-06-24T06:52:55;7.07;;;4.78;;
16430;SDS011;8325;49.284;7.238;2023-06-24T06:57:06;5.18;;;4.68;;
16430;SDS011;8325;49.284;7.238;2023-06-24T07:01:18;6.68;;;5.10;;
16430;SDS011;8325;49.284;7.238;2023-06-24T07:05:30;8.05;;;4.78;;
16430;SDS011;8325;49.284;7.238;2023-06-24T07:09:41;7.25;;;5.13;;
16430;SDS011;8325;49.284;7.238;2023-06-24T07:13:53;6.10;;;4.90;;
16430;SDS011;8325;49.284;7.238;2023-06-24T07:18:05;5.28;;;4.78;;
16430;SDS011;8325;49.284;7.238;2023-06-24T07:22:16;6.10;;;4.55;;
16430;SDS011;8325;49.284;7.238;2023-06-24T07:26:28;5.80;;;4.88;;
16430;SDS011;8325;49.284;7.238;2023-06-24T07:30:41;5.68;;;4.30;;
16430;SDS011;8325;49.284;7.238;2023-06-24T07:34:52;5.30;;;4.80;;
16430;SDS011;8325;49.284;7.238;2023-06-24T07:39:04;5.10;;;4.70;;
16430;SDS011;8325;49.284;7.238;2023-06-24T07:43:16;7.50;;;5.00;;
16430;SDS011;8325;49.284;7.238;2023-06-24T07:47:28;5.75;;;4.68;;
16430;SDS011;8325;49.284;7.238;2023-06-24T07:51:40;5.88;;;4.80;;
16430;SDS011;8325;49.284;7.238;2023-06-24T07:55:52;5.88;;;4.38;;
16430;SDS011;8325;49.284;7.238;2023-06-24T08:00:05;5.72;;;4.75;;
16430;SDS011;8325;49.284;7.238;2023-06-24T08:04:23;6.05;;;4.47;;
16430;SDS011;8325;49.284;7.238;2023-06-24T08:08:35;6.07;;;4.88;;
16430;SDS011;8325;49.284;7.238;2023-06-24T08:12:47;5.10;;;4.43;;
16430;SDS011;8325;49.284;7.238;2023-06-24T08:16:58;4.82;;;4.43;;
16430;SDS011;8325;49.284;7.238;2023-06-24T08:21:10;5.32;;;4.22;;
16430;SDS011;8325;49.284;7.238;2023-06-24T08:25:21;5.55;;;4.60;;
16430;SDS011;8325;49.284;7.238;2023-06-24T08:29:33;6.53;;;4.38;;
16430;SDS011;8325;49.284;7.238;2023-06-24T08:33:45;7.78;;;4.35;;
16430;SDS011;8325;49.284;7.238;2023-06-24T08:37:57;5.20;;;4.60;;
16430;SDS011;8325;49.284;7.238;2023-06-24T08:42:08;5.32;;;4.53;;
16430;SDS011;8325;49.284;7.238;2023-06-24T08:46:20;5.13;;;4.68;;
16430;SDS011;8325;49.284;7.238;2023-06-24T08:50:36;4.78;;;4.30;;
16430;SDS011;8325;49.284;7.238;2023-06-24T08:54:55;4.95;;;4.45;;
16430;SDS011;8325;49.284;7.238;2023-06-24T08:59:09;5.20;;;4.45;;
16430;SDS011;8325;49.284;7.238;2023-06-24T09:03:21;4.63;;;4.10;;
16430;SDS011;8325;49.284;7.238;2023-06-24T09:07:34;4.57;;;4.18;;
16430;SDS011;8325;49.284;7.238;2023-06-24T09:11:50;4.88;;;4.22;;
16430;SDS011;8325;49.284;7.238;2023-06-24T09:16:12;6.20;;;4.05;;
16430;SDS011;8325;49.284;7.238;2023-06-24T09:20:25;4.05;;;3.67;;
16430;SDS011;8325;49.284;7.238;2023-06-24T09:24:41;4.35;;;3.92;;
16430;SDS011;8325;49.284;7.238;2023-06-24T09:28:53;4.60;;;4.10;;
16430;SDS011;8325;49.284;7.238;2023-06-24T09:33:10;5.18;;;4.60;;
16430;SDS011;8325;49.284;7.238;2023-06-24T09:37:22;4.93;;;4.07;;
16430;SDS011;8325;49.284;7.238;2023-06-24T09:41:35;4.85;;;4.38;;
16430;SDS011;8325;49.284;7.238;2023-06-24T09:45:48;4.47;;;3.70;;
16430;SDS011;8325;49.284;7.238;2023-06-24T09:50:00;3.80;;;3.50;;
16430;SDS011;8325;49.284;7.238;2023-06-24T09:54:14;4.55;;;3.78;;
16430;SDS011;8325;49.284;7.238;2023-06-24T09:58:26;4.47;;;4.07;;
16430;SDS011;8325;49.284;7.238;2023-06-24T10:02:40;4.55;;;3.47;;
16430;SDS011;8325;49.284;7.238;2023-06-24T10:06:52;5.68;;;3.90;;
16430;SDS011;8325;49.284;7.238;2023-06-24T10:11:05;4.85;;;4.10;;
16430;SDS011;8325;49.284;7.238;2023-06-24T10:15:17;4.40;;;3.85;;
16430;SDS011;8325;49.284;7.238;2023-06-24T10:19:28;4.22;;;3.63;;
16430;SDS011;8325;49.284;7.238;2023-06-24T10:23:41;5.82;;;4.20;;
16430;SDS011;8325;49.284;7.238;2023-06-24T10:27:54;4.10;;;3.72;;
16430;SDS011;8325;49.284;7.238;2023-06-24T10:32:09;3.80;;;3.50;;
16430;SDS011;8325;49.284;7.238;2023-06-24T10:36:33;4.20;;;3.80;;
16430;SDS011;8325;49.284;7.238;2023-06-24T10:40:45;4.32;;;3.88;;
16430;SDS011;8325;49.284;7.238;2023-06-24T10:45:01;4.70;;;3.75;;
16430;SDS011;8325;49.284;7.238;2023-06-24T10:49:25;4.47;;;4.07;;
16430;SDS011;8325;49.284;7.238;2023-06-24T10:53:36;4.88;;;4.32;;
16430;SDS011;8325;49.284;7.238;2023-06-24T10:57:48;4.20;;;3.80;;
16430;SDS011;8325;49.284;7.238;2023-06-24T11:02:00;4.32;;;3.78;;
16430;SDS011;8325;49.284;7.238;2023-06-24T11:06:12;4.32;;;3.92;;
16430;SDS011;8325;49.284;7.238;2023-06-24T11:10:24;4.32;;;3.83;;
16430;SDS011;8325;49.284;7.238;2023-06-24T11:14:36;4.28;;;3.88;;
16430;SDS011;8325;49.284;7.238;2023-06-24T11:18:50;4.05;;;3.65;;
16430;SDS011;8325;49.284;7.238;2023-06-24T11:23:01;4.57;;;4.18;;
16430;SDS011;8325;49.284;7.238;2023-06-24T11:27:13;4.28;;;3.88;;
16430;SDS011;8325;49.284;7.238;2023-06-24T11:31:25;4.35;;;3.95;;
16430;SDS011;8325;49.284;7.238;2023-06-24T11:35:37;5.38;;;4.13;;
16430;SDS011;8325;49.284;7.238;2023-06-24T11:39:59;5.00;;;3.75;;
16430;SDS011;8325;49.284;7.238;2023-06-24T11:44:17;4.75;;;4.13;;
16430;SDS011;8325;49.284;7.238;2023-06-24T11:48:30;4.00;;;3.60;;
16430;SDS011;8325;49.284;7.238;2023-06-24T11:52:42;3.97;;;3.60;;
16430;SDS011;8325;49.284;7.238;2023-06-24T11:57:00;3.90;;;3.60;;
16430;SDS011;8325;49.284;7.238;2023-06-24T12:01:12;3.85;;;3.55;;
16430;SDS011;8325;49.284;7.238;2023-06-24T12:05:24;4.65;;;4.10;;
16430;SDS011;8325;49.284;7.238;2023-06-24T12:09:42;4.40;;;4.00;;
16430;SDS011;8325;49.284;7.238;2023-06-24T12:13:54;4.72;;;4.22;;
16430;SDS011;8325;49.284;7.238;2023-06-24T12:18:06;4.10;;;3.70;;
16430;SDS011;8325;49.284;7.238;2023-06-24T12:22:18;4.25;;;3.85;;
16430;SDS011;8325;49.284;7.238;2023-06-24T12:26:30;4.57;;;4.18;;
16430;SDS011;8325;49.284;7.238;2023-06-24T12:30:42;4.20;;;3.80;;
16430;SDS011;8325;49.284;7.238;2023-06-24T12:34:53;4.32;;;3.95;;
16430;SDS011;8325;49.284;7.238;2023-06-24T12:39:05;4.15;;;3.80;;
16430;SDS011;8325;49.284;7.238;2023-06-24T12:43:17;4.28;;;3.88;;
16430;SDS011;8325;49.284;7.238;2023-06-24T12:47:28;4.03;;;3.63;;
16430;SDS011;8325;49.284;7.238;2023-06-24T12:51:40;4.07;;;3.67;;
16430;SDS011;8325;49.284;7.238;2023-06-24T12:55:51;4.35;;;4.00;;
16430;SDS011;8325;49.284;7.238;2023-06-24T13:00:06;4.20;;;3.80;;
16430;SDS011;8325;49.284;7.238;2023-06-24T13:04:18;4.47;;;4.07;;
16430;SDS011;8325;49.284;7.238;2023-06-24T13:08:33;5.65;;;4.70;;
16430;SDS011;8325;49.284;7.238;2023-06-24T13:12:44;4.63;;;4.13;;
16430;SDS011;8325;49.284;7.238;2023-06-24T13:16:56;4.50;;;4.00;;
16430;SDS011;8325;49.284;7.238;2023-06-24T13:21:07;4.78;;;3.88;;
16430;SDS011;8325;49.284;7.238;2023-06-24T13:25:26;5.13;;;4.40;;
16430;SDS011;8325;49.284;7.238;2023-06-24T13:29:38;4.35;;;3.95;;
16430;SDS011;8325;49.284;7.238;2023-06-24T13:33:50;4.32;;;3.92;;
16430;SDS011;8325;49.284;7.238;2023-06-24T13:38:01;3.72;;;3.42;;
16430;SDS011;8325;49.284;7.238;2023-06-24T13:42:13;3.88;;;3.53;;
16430;SDS011;8325;49.284;7.238;2023-06-24T13:46:25;5.75;;;3.65;;
16430;SDS011;8325;49.284;7.238;2023-06-24T13:50:37;4.20;;;3.75;;
16430;SDS011;8325;49.284;7.238;2023-06-24T13:54:49;4.25;;;3.85;;
16430;SDS011;8325;49.284;7.238;2023-06-24T13:59:01;4.35;;;3.80;;
16430;SDS011;8325;49.284;7.238;2023-06-24T14:03:13;4.80;;;4.00;;
16430;SDS011;8325;49.284;7.238;2023-06-24T14:07:25;4.78;;;3.95;;
16430;SDS011;8325;49.284;7.238;2023-06-24T14:11:37;4.18;;;3.78;;
16430;SDS011;8325;49.284;7.238;2023-06-24T14:15:49;4.18;;;3.78;;
16430;SDS011;8325;49.284;7.238;2023-06-24T14:20:00;3.90;;;3.60;;
16430;SDS011;8325;49.284;7.238;2023-06-24T14:24:12;4.50;;;4.10;;
16430;SDS011;8325;49.284;7.238;2023-06-24T14:28:27;4.40;;;3.92;;
16430;SDS011;8325;49.284;7.238;2023-06-24T14:32:38;4.82;;;3.85;;
16430;SDS011;8325;49.284;7.238;2023-06-24T14:36:50;4.30;;;3.90;;
16430;SDS011;8325;49.284;7.238;2023-06-24T14:41:01;3.95;;;3.63;;
16430;SDS011;8325;49.284;7.238;2023-06-24T14:45:13;4.30;;;3.90;;
16430;SDS011;8325;49.284;7.238;2023-06-24T14:49:25;4.47;;;4.07;;
16430;SDS011;8325;49.284;7.238;2023-06-24T14:53:37;4.50;;;4.10;;
16430;SDS011;8325;49.284;7.238;2023-06-24T14:57:48;4.15;;;3.80;;
16430;SDS011;8325;49.284;7.238;2023-06-24T15:02:00;4.63;;;4.13;;
16430;SDS011;8325;49.284;7.238;2023-06-24T15:06:11;4.50;;;4.10;;
16430;SDS011;8325;49.284;7.238;2023-06-24T15:10:23;4.35;;;3.63;;
16430;SDS011;8325;49.284;7.238;2023-06-24T15:14:35;4.82;;;4.00;;
16430;SDS011;8325;49.284;7.238;2023-06-24T15:18:46;4.38;;;3.97;;
16430;SDS011;8325;49.284;7.238;2023-06-24T15:22:59;5.88;;;4.25;;
16430;SDS011;8325;49.284;7.238;2023-06-24T15:27:10;5.90;;;4.28;;
16430;SDS011;8325;49.284;7.238;2023-06-24T15:31:22;4.95;;;4.00;;
16430;SDS011;8325;49.284;7.238;2023-06-24T15:35:34;4.90;;;4.13;;
16430;SDS011;8325;49.284;7.238;2023-06-24T15:39:49;4.88;;;4.38;;
16430;SDS011;8325;49.284;7.238;2023-06-24T15:44:03;4.63;;;4.18;;
16430;SDS011;8325;49.284;7.238;2023-06-24T15:48:16;4.72;;;4.32;;
16430;SDS011;8325;49.284;7.238;2023-06-24T15:52:27;4.65;;;4.25;;
16430;SDS011;8325;49.284;7.238;2023-06-24T15:56:39;4.93;;;4.53;;
16430;SDS011;8325;49.284;7.238;2023-06-24T16:00:51;4.50;;;4.10;;
16430;SDS011;8325;49.284;7.238;2023-06-24T16:05:03;4.38;;;3.97;;
16430;SDS011;8325;49.284;7.238;2023-06-24T16:09:16;4.95;;;4.18;;
16430;SDS011;8325;49.284;7.238;2023-06-24T16:13:28;4.80;;;4.40;;
16430;SDS011;8325;49.284;7.238;2023-06-24T16:17:41;5.43;;;4.93;;
16430;SDS011;8325;49.284;7.238;2023-06-24T16:21:53;4.55;;;4.15;;
16430;SDS011;8325;49.284;7.238;2023-06-24T16:26:05;6.38;;;4.90;;
16430;SDS011;8325;49.284;7.238;2023-06-24T16:30:16;5.20;;;4.80;;
16430;SDS011;8325;49.284;7.238;2023-06-24T16:34:31;5.53;;;5.03;;
16430;SDS011;8325;49.284;7.238;2023-06-24T16:38:43;5.20;;;4.70;;
16430;SDS011;8325;49.284;7.238;2023-06-24T16:42:55;6.40;;;5.43;;
16430;SDS011;8325;49.284;7.238;2023-06-24T16:47:06;5.00;;;4.60;;
16430;SDS011;8325;49.284;7.238;2023-06-24T16:51:22;5.97;;;4.50;;
16430;SDS011;8325;49.284;7.238;2023-06-24T16:55:34;5.53;;;4.82;;
16430;SDS011;8325;49.284;7.238;2023-06-24T16:59:46;5.47;;;4.97;;
16430;SDS011;8325;49.284;7.238;2023-06-24T17:03:57;5.25;;;4.82;;
16430;SDS011;8325;49.284;7.238;2023-06-24T17:08:09;5.93;;;5.32;;
16430;SDS011;8325;49.284;7.238;2023-06-24T17:12:21;6.00;;;4.97;;
16430;SDS011;8325;49.284;7.238;2023-06-24T17:16:32;5.55;;;5.00;;
16430;SDS011;8325;49.284;7.238;2023-06-24T17:20:44;5.88;;;5.38;;
16430;SDS011;8325;49.284;7.238;2023-06-24T17:24:56;5.55;;;5.05;;
16430;SDS011;8325;49.284;7.238;2023-06-24T17:29:07;5.40;;;4.90;;
16430;SDS011;8325;49.284;7.238;2023-06-24T17:33:19;6.18;;;5.57;;
16430;SDS011;8325;49.284;7.238;2023-06-24T17:37:30;5.68;;;5.18;;
16430;SDS011;8325;49.284;7.238;2023-06-24T17:41:42;6.00;;;5.40;;
16430;SDS011;8325;49.284;7.238;2023-06-24T17:45:54;5.97;;;5.38;;
16430;SDS011;8325;49.284;7.238;2023-06-24T17:50:06;5.75;;;5.25;;
16430;SDS011;8325;49.284;7.238;2023-06-24T17:54:18;5.78;;;5.25;;
16430;SDS011;8325;49.284;7.238;2023-06-24T17:58:30;5.95;;;5.40;;
16430;SDS011;8325;49.284;7.238;2023-06-24T18:02:42;5.53;;;5.03;;
16430;SDS011;8325;49.284;7.238;2023-06-24T18:06:54;6.22;;;4.85;;
16430;SDS011;8325;49.284;7.238;2023-06-24T18:11:07;5.80;;;5.25;;
16430;SDS011;8325;49.284;7.238;2023-06-24T18:15:19;5.88;;;5.38;;
16430;SDS011;8325;49.284;7.238;2023-06-24T18:19:31;5.40;;;4.90;;
16430;SDS011;8325;49.284;7.238;2023-06-24T18:23:42;5.65;;;5.07;;
16430;SDS011;8325;49.284;7.238;2023-06-24T18:27:56;5.47;;;4.97;;
16430;SDS011;8325;49.284;7.238;2023-06-24T18:32:07;5.30;;;4.80;;
16430;SDS011;8325;49.284;7.238;2023-06-24T18:36:20;5.57;;;5.07;;
16430;SDS011;8325;49.284;7.238;2023-06-24T18:40:31;6.05;;;5.30;;
16430;SDS011;8325;49.284;7.238;2023-06-24T18:44:43;7.57;;;5.10;;
16430;SDS011;8325;49.284;7.238;2023-06-24T18:48:55;5.50;;;5.00;;
16430;SDS011;8325;49.284;7.238;2023-06-24T18:53:07;5.30;;;4.80;;
16430;SDS011;8325;49.284;7.238;2023-06-24T18:57:21;5.50;;;5.00;;
16430;SDS011;8325;49.284;7.238;2023-06-24T19:01:33;5.70;;;5.20;;
16430;SDS011;8325;49.284;7.238;2023-06-24T19:05:45;5.47;;;4.97;;
16430;SDS011;8325;49.284;7.238;2023-06-24T19:09:57;5.40;;;4.90;;
16430;SDS011;8325;49.284;7.238;2023-06-24T19:14:08;5.35;;;4.68;;
16430;SDS011;8325;49.284;7.238;2023-06-24T19:18:20;5.88;;;5.28;;
16430;SDS011;8325;49.284;7.238;2023-06-24T19:22:31;5.60;;;5.10;;
16430;SDS011;8325;49.284;7.238;2023-06-24T19:26:43;6.22;;;5.18;;
16430;SDS011;8325;49.284;7.238;2023-06-24T19:30:55;5.70;;;5.20;;
16430;SDS011;8325;49.284;7.238;2023-06-24T19:35:06;6.22;;;5.07;;
16430;SDS011;8325;49.284;7.238;2023-06-24T19:39:18;7.00;;;5.53;;
16430;SDS011;8325;49.284;7.238;2023-06-24T19:43:30;6.50;;;4.93;;
16430;SDS011;8325;49.284;7.238;2023-06-24T19:47:41;6.03;;;5.45;;
16430;SDS011;8325;49.284;7.238;2023-06-24T19:51:53;5.22;;;4.72;;
16430;SDS011;8325;49.284;7.238;2023-06-24T19:56:05;5.50;;;5.00;;
16430;SDS011;8325;49.284;7.238;2023-06-24T20:00:17;6.25;;;5.43;;
16430;SDS011;8325;49.284;7.238;2023-06-24T20:04:28;7.30;;;5.90;;
16430;SDS011;8325;49.284;7.238;2023-06-24T20:08:40;6.70;;;5.75;;
16430;SDS011;8325;49.284;7.238;2023-06-24T20:12:52;7.60;;;5.85;;
16430;SDS011;8325;49.284;7.238;2023-06-24T20:17:04;8.88;;;6.13;;
16430;SDS011;8325;49.284;7.238;2023-06-24T20:21:18;7.45;;;6.10;;
16430;SDS011;8325;49.284;7.238;2023-06-24T20:25:30;7.53;;;6.07;;
16430;SDS011;8325;49.284;7.238;2023-06-24T20:29:42;6.55;;;5.95;;
16430;SDS011;8325;49.284;7.238;2023-06-24T20:33:53;7.20;;;6.53;;
16430;SDS011;8325;49.284;7.238;2023-06-24T20:38:05;8.13;;;6.65;;
16430;SDS011;8325;49.284;7.238;2023-06-24T20:42:17;7.05;;;6.35;;
16430;SDS011;8325;49.284;7.238;2023-06-24T20:46:30;6.82;;;6.13;;
16430;SDS011;8325;49.284;7.238;2023-06-24T20:50:45;7.65;;;6.68;;
16430;SDS011;8325;49.284;7.238;2023-06-24T20:55:20;7.20;;;6.47;;
16430;SDS011;8325;49.284;7.238;2023-06-24T20:59:30;8.68;;;6.72;;
16430;SDS011;8325;49.284;7.238;2023-06-24T21:03:42;7.70;;;7.00;;
16430;SDS011;8325;49.284;7.238;2023-06-24T21:07:53;7.25;;;6.55;;
16430;SDS011;8325;49.284;7.238;2023-06-24T21:12:05;7.70;;;6.78;;
16430;SDS011;8325;49.284;7.238;2023-06-24T21:16:20;7.35;;;6.65;;
16430;SDS011;8325;49.284;7.238;2023-06-24T21:20:32;7.75;;;6.60;;
16430;SDS011;8325;49.284;7.238;2023-06-24T21:24:44;7.68;;;6.75;;
16430;SDS011;8325;49.284;7.238;2023-06-24T21:28:55;7.50;;;6.78;;
